< < Back
Terminal Aerodrome Forecast


Current Version              Previous Versions:   1  2  3  4  5  6  7  8  9  

Terminal Aerodrome Forecast

704
FTUS44 KMRX 241120
TAFTYS
TAF
KTYS 241120Z 2412/2512 25005KT P6SM SKC
     FM250000 23003KT P6SM SKC=

Latest METAR

925
SAUS80 KWBC 250300 RRB
MTRTYS
METAR KTYS 250253Z 00000KT 10SM FEW250 22/11 A3015 RMK AO2 SLP200
T02170106 53013


USA.gov is the U.S. government's official web portal to all federal, state and local government web resources and services.